Terminal Aerodrome Forecast
Issued by NWS

Current Version | Previous Version | Text Only | Print | Product List | Glossary Off
Versions: 1 2 3 4 5 6 7 8 9 10 11 12 13 14 15 16 17 18 19 20 21 22 23

000
FTUS41 KRLX 270538
TAFCKB
TAF
KCKB 270538Z 2706/2806 19006KT 4SM BR VCSH OVC035
     FM270800 19004KT 6SM BR BKN025
     FM271400 23005KT P6SM BKN035
     FM280400 16003KT P6SM SHRA BKN070=

USA.gov is the U.S. government's official web portal to all federal, state and local government web resources and services.